Time,TemperatureF,DewpointF,PressureIn,WindDirection,WindDirectionDegrees,WindSpeedMPH,WindSpeedGustMPH,Humidity,HourlyPrecipIn,Conditions,Clouds,dailyrainin,SoftwareType,DateUTC
2013-05-16 00:01:00,73.2,59.4,29.83,West,276,0.0,2.0,62,0.00,,---,0.00,VWS V14.01,2013-05-16 04:01:00,
2013-05-16 00:03:00,73.2,59.4,29.83,West,276,0.0,2.0,62,0.00,,---,0.00,VWS V14.01,2013-05-16 04:03:00,
2013-05-16 00:07:00,73.2,59.4,29.84,WNW,284,0.0,4.0,62,0.00,,---,0.00,VWS V14.01,2013-05-16 04:07:00,
2013-05-16 00:08:00,73.2,59.0,29.84,WNW,288,0.0,4.0,61,0.00,,---,0.00,VWS V14.01,2013-05-16 04:08:00,
2013-05-16 00:13:00,73.2,59.0,29.84,West,275,0.0,3.0,61,0.00,,---,0.00,VWS V14.01,2013-05-16 04:13:00,
2013-05-16 00:19:00,73.3,58.6,29.84,WSW,238,0.0,3.0,60,0.00,,---,0.00,VWS V14.01,2013-05-16 04:19:00,
2013-05-16 00:25:00,73.3,58.1,29.83,WSW,238,0.0,0.0,59,0.00,,---,0.00,VWS V14.01,2013-05-16 04:25:00,
2013-05-16 00:31:00,73.5,56.9,29.83,WSW,252,0.0,2.0,56,0.00,,---,0.00,VWS V14.01,2013-05-16 04:31:00,
2013-05-16 00:37:00,73.5,55.9,29.83,WSW,242,3.0,4.0,54,0.00,,---,0.00,VWS V14.01,2013-05-16 04:37:00,
2013-05-16 00:43:00,73.7,55.0,29.83,West,264,0.0,6.0,52,0.00,,---,0.00,VWS V14.01,2013-05-16 04:43:00,
2013-05-16 00:49:00,73.7,54.5,29.83,WSW,253,0.0,6.0,51,0.00,,---,0.00,VWS V14.01,2013-05-16 04:49:00,
2013-05-16 00:55:00,73.3,53.0,29.83,North,6,0.0,0.0,49,0.00,,---,0.00,VWS V14.01,2013-05-16 04:55:00,
2013-05-16 01:01:00,73.2,52.9,29.83,SSW,200,0.0,3.0,49,0.00,,---,0.00,VWS V14.01,2013-05-16 05:01:00,
2013-05-16 01:07:00,73.2,52.4,29.83,SSW,200,0.0,3.0,48,0.00,,---,0.00,VWS V14.01,2013-05-16 05:07:00,
2013-05-16 01:13:00,73.0,52.7,29.83,SSW,200,0.0,0.0,49,0.00,,---,0.00,VWS V14.01,2013-05-16 05:13:00,
2013-05-16 01:19:00,72.8,52.5,29.83,WSW,251,0.0,1.0,49,0.00,,---,0.00,VWS V14.01,2013-05-16 05:19:00,
2013-05-16 01:25:00,72.7,52.5,29.82,WSW,251,0.0,0.0,49,0.00,,---,0.00,VWS V14.01,2013-05-16 05:25:00,
2013-05-16 01:31:00,72.5,52.3,29.82,WSW,251,0.0,1.0,49,0.00,,---,0.00,VWS V14.01,2013-05-16 05:31:00,
2013-05-16 01:37:00,72.7,51.9,29.82,WSW,251,0.0,1.0,48,0.00,,---,0.00,VWS V14.01,2013-05-16 05:37:00,
2013-05-16 01:43:00,72.5,52.3,29.82,WSW,251,0.0,0.0,49,0.00,,---,0.00,VWS V14.01,2013-05-16 05:43:00,
2013-05-16 01:49:00,72.3,52.6,29.82,WSW,251,0.0,0.0,50,0.00,,---,0.00,VWS V14.01,2013-05-16 05:49:00,
2013-05-16 01:55:00,72.1,52.5,29.82,NW,314,0.0,0.0,50,0.00,,---,0.00,VWS V14.01,2013-05-16 05:55:00,
2013-05-16 02:01:00,71.8,52.2,29.82,NW,322,0.0,3.0,50,0.00,,---,0.00,VWS V14.01,2013-05-16 06:01:00,
2013-05-16 02:07:00,71.6,53.6,29.82,NW,304,0.0,3.0,53,0.00,,---,0.00,VWS V14.01,2013-05-16 06:07:00,
2013-05-16 02:13:00,71.1,53.6,29.82,North,4,0.0,1.0,54,0.00,,---,0.00,VWS V14.01,2013-05-16 06:13:00,
2013-05-16 02:20:00,70.4,53.5,29.82,North,4,0.0,1.0,55,0.00,,---,0.00,VWS V14.01,2013-05-16 06:20:00,
2013-05-16 02:26:00,69.8,53.9,29.81,North,4,0.0,0.0,57,0.00,,---,0.00,VWS V14.01,2013-05-16 06:26:00,
2013-05-16 02:32:00,69.1,54.2,29.81,North,4,0.0,0.0,59,0.00,,---,0.00,VWS V14.01,2013-05-16 06:32:00,
2013-05-16 02:38:00,68.8,54.4,29.81,North,4,0.0,0.0,60,0.00,,---,0.00,VWS V14.01,2013-05-16 06:38:00,
2013-05-16 02:44:00,68.3,54.3,29.81,North,4,0.0,0.0,61,0.00,,---,0.00,VWS V14.01,2013-05-16 06:44:00,
2013-05-16 02:50:00,67.8,54.3,29.81,North,4,0.0,0.0,62,0.00,,---,0.00,VWS V14.01,2013-05-16 06:50:00,
2013-05-16 02:56:00,67.4,55.2,29.81,North,4,0.0,0.0,65,0.00,,---,0.00,VWS V14.01,2013-05-16 06:56:00,
2013-05-16 03:02:00,66.9,54.8,29.81,North,4,0.0,0.0,65,0.00,,---,0.00,VWS V14.01,2013-05-16 07:02:00,
2013-05-16 03:08:00,66.4,54.3,29.81,North,4,1.0,1.0,65,0.00,,---,0.00,VWS V14.01,2013-05-16 07:08:00,
2013-05-16 03:14:00,66.1,54.8,29.81,North,4,0.0,2.0,67,0.00,,---,0.00,VWS V14.01,2013-05-16 07:14:00,
2013-05-16 03:20:00,65.6,54.4,29.81,North,4,0.0,2.0,67,0.00,,---,0.00,VWS V14.01,2013-05-16 07:20:00,
2013-05-16 03:26:00,65.3,54.9,29.81,North,4,0.0,1.0,69,0.00,,---,0.00,VWS V14.01,2013-05-16 07:26:00,
2013-05-16 03:32:00,65.2,54.8,29.81,North,4,0.0,1.0,69,0.00,,---,0.00,VWS V14.01,2013-05-16 07:32:00,
2013-05-16 03:38:00,65.0,54.2,29.81,North,4,0.0,1.0,68,0.00,,---,0.00,VWS V14.01,2013-05-16 07:38:00,
2013-05-16 03:44:00,64.8,54.8,29.81,North,0,0.0,0.0,70,0.00,,---,0.00,VWS V14.01,2013-05-16 07:44:00,
2013-05-16 03:50:00,64.5,54.9,29.81,North,0,0.0,0.0,71,0.00,,---,0.00,VWS V14.01,2013-05-16 07:50:00,
2013-05-16 03:56:00,64.3,54.7,29.81,North,0,0.0,0.0,71,0.00,,---,0.00,VWS V14.01,2013-05-16 07:56:00,
2013-05-16 04:02:00,64.3,54.7,29.81,North,0,0.0,0.0,71,0.00,,---,0.00,VWS V14.01,2013-05-16 08:02:00,
2013-05-16 04:08:00,64.2,55.0,29.81,North,0,0.0,0.0,72,0.00,,---,0.00,VWS V14.01,2013-05-16 08:08:00,
2013-05-16 04:14:00,63.9,54.7,29.81,North,0,0.0,0.0,72,0.00,,---,0.00,VWS V14.01,2013-05-16 08:14:00,
2013-05-16 04:20:00,63.7,54.9,29.81,North,0,0.0,0.0,73,0.00,,---,0.00,VWS V14.01,2013-05-16 08:20:00,
2013-05-16 04:26:00,63.2,54.8,29.81,North,0,0.0,0.0,74,0.00,,---,0.00,VWS V14.01,2013-05-16 08:26:00,
2013-05-16 04:32:00,63.1,55.1,29.81,North,0,0.0,0.0,75,0.00,,---,0.00,VWS V14.01,2013-05-16 08:32:00,
2013-05-16 04:38:00,62.7,54.3,29.81,North,0,0.0,0.0,74,0.00,,---,0.00,VWS V14.01,2013-05-16 08:38:00,
2013-05-16 04:44:00,62.6,54.2,29.81,North,0,0.0,0.0,74,0.00,,---,0.00,VWS V14.01,2013-05-16 08:44:00,
2013-05-16 04:50:00,62.4,54.0,29.81,North,0,0.0,0.0,74,0.00,,---,0.00,VWS V14.01,2013-05-16 08:50:00,
2013-05-16 04:56:00,62.4,54.0,29.82,North,0,2.0,2.0,74,0.00,,---,0.00,VWS V14.01,2013-05-16 08:56:00,
2013-05-16 05:02:00,62.3,54.3,29.82,North,0,0.0,2.0,75,0.00,,---,0.00,VWS V14.01,2013-05-16 09:02:00,
2013-05-16 05:08:00,62.1,54.5,29.83,North,0,0.0,2.0,76,0.00,,---,0.00,VWS V14.01,2013-05-16 09:08:00,
2013-05-16 05:14:00,62.0,54.4,29.83,NE,46,0.0,2.0,76,0.00,,---,0.00,VWS V14.01,2013-05-16 09:14:00,
2013-05-16 05:20:00,61.8,54.5,29.83,NE,46,0.0,2.0,77,0.00,,---,0.00,VWS V14.01,2013-05-16 09:20:00,
2013-05-16 05:26:00,61.8,54.5,29.83,NE,46,0.0,1.0,77,0.00,,---,0.00,VWS V14.01,2013-05-16 09:26:00,
2013-05-16 05:32:00,61.6,54.3,29.83,NE,46,0.0,1.0,77,0.00,,---,0.00,VWS V14.01,2013-05-16 09:32:00,
2013-05-16 05:38:00,61.5,54.6,29.83,NE,46,0.0,1.0,78,0.00,,---,0.00,VWS V14.01,2013-05-16 09:38:00,
2013-05-16 05:44:00,61.2,54.3,29.83,NE,46,0.0,1.0,78,0.00,,---,0.00,VWS V14.01,2013-05-16 09:44:00,
2013-05-16 05:50:00,60.9,54.3,29.83,NE,46,0.0,1.0,79,0.00,,---,0.00,VWS V14.01,2013-05-16 09:50:00,
2013-05-16 05:56:00,60.7,54.2,29.83,NE,46,0.0,0.0,79,0.00,,---,0.00,VWS V14.01,2013-05-16 09:56:00,
2013-05-16 06:02:00,60.7,53.8,29.83,NE,46,0.0,0.0,78,0.00,,---,0.00,VWS V14.01,2013-05-16 10:02:00,
2013-05-16 06:08:00,60.5,54.0,29.83,NE,46,0.0,0.0,79,0.00,,---,0.00,VWS V14.01,2013-05-16 10:08:00,
2013-05-16 06:14:00,60.5,54.0,29.83,NE,46,0.0,0.0,79,0.00,,---,0.00,VWS V14.01,2013-05-16 10:14:00,
2013-05-16 06:20:00,60.5,54.0,29.83,NE,46,0.0,0.0,79,0.00,,---,0.00,VWS V14.01,2013-05-16 10:20:00,
2013-05-16 06:26:00,60.5,53.6,29.84,NE,46,0.0,1.0,78,0.00,,---,0.00,VWS V14.01,2013-05-16 10:26:00,
2013-05-16 06:32:00,60.7,53.8,29.84,North,3,0.0,1.0,78,0.00,,---,0.00,VWS V14.01,2013-05-16 10:32:00,
2013-05-16 06:38:00,60.7,54.2,29.84,North,3,0.0,1.0,79,0.00,,---,0.00,VWS V14.01,2013-05-16 10:38:00,
2013-05-16 06:44:00,60.4,54.2,29.84,North,9,0.0,2.0,80,0.00,,---,0.00,VWS V14.01,2013-05-16 10:44:00,
2013-05-16 06:50:00,60.2,54.4,29.84,North,9,0.0,2.0,81,0.00,,---,0.00,VWS V14.01,2013-05-16 10:50:00,
2013-05-16 06:56:00,60.2,54.4,29.85,North,9,0.0,0.0,81,0.00,,---,0.00,VWS V14.01,2013-05-16 10:56:00,
2013-05-16 07:02:00,60.2,54.0,29.85,North,9,0.0,0.0,80,0.00,,---,0.00,VWS V14.01,2013-05-16 11:02:00,
2013-05-16 07:08:00,60.7,54.2,29.85,North,9,0.0,1.0,79,0.00,,---,0.00,VWS V14.01,2013-05-16 11:08:00,
2013-05-16 07:14:00,61.3,54.4,29.85,SSE,150,0.0,3.0,78,0.00,,---,0.00,VWS V14.01,2013-05-16 11:14:00,
2013-05-16 07:20:00,61.8,54.5,29.85,SSE,150,0.0,3.0,77,0.00,,---,0.00,VWS V14.01,2013-05-16 11:20:00,
2013-05-16 07:26:00,62.3,54.7,29.85,SSE,150,0.0,1.0,76,0.00,,---,0.00,VWS V14.01,2013-05-16 11:26:00,
2013-05-16 07:33:00,62.9,54.9,29.85,SSE,150,0.0,2.0,75,0.00,,---,0.00,VWS V14.01,2013-05-16 11:33:00,
2013-05-16 07:38:00,63.4,55.3,29.86,SSE,150,0.0,2.0,75,0.00,,---,0.00,VWS V14.01,2013-05-16 11:38:00,
2013-05-16 07:45:00,64.2,55.8,29.86,North,356,0.0,1.0,74,0.00,,---,0.00,VWS V14.01,2013-05-16 11:45:00,
2013-05-16 07:51:00,65.0,55.4,29.86,North,356,0.0,1.0,71,0.00,,---,0.00,VWS V14.01,2013-05-16 11:51:00,
2013-05-16 07:57:00,65.8,55.4,29.86,North,356,0.0,0.0,69,0.00,,---,0.00,VWS V14.01,2013-05-16 11:57:00,
2013-05-16 08:03:00,66.4,55.5,29.86,North,359,0.0,0.0,68,0.00,,---,0.00,VWS V14.01,2013-05-16 12:03:00,
2013-05-16 08:08:00,67.1,57.0,29.86,North,359,0.0,1.0,70,0.00,,---,0.00,VWS V14.01,2013-05-16 12:08:00,
2013-05-16 08:15:00,67.6,57.1,29.86,North,359,2.0,2.0,69,0.00,,---,0.00,VWS V14.01,2013-05-16 12:15:00,
2013-05-16 08:21:00,68.1,57.6,29.86,North,359,0.0,2.0,69,0.00,,---,0.00,VWS V14.01,2013-05-16 12:21:00,
2013-05-16 08:27:00,68.8,57.0,29.87,North,359,0.0,0.0,66,0.00,,---,0.00,VWS V14.01,2013-05-16 12:27:00,
2013-05-16 08:33:00,69.4,57.6,29.87,North,359,0.0,0.0,66,0.00,,---,0.00,VWS V14.01,2013-05-16 12:33:00,
2013-05-16 08:38:00,70.1,57.8,29.87,North,359,0.0,0.0,65,0.00,,---,0.00,VWS V14.01,2013-05-16 12:38:00,
2013-05-16 08:45:00,70.9,56.8,29.87,NNW,328,0.0,1.0,61,0.00,,---,0.00,VWS V14.01,2013-05-16 12:45:00,
2013-05-16 08:51:00,72.0,56.4,29.87,West,263,0.0,1.0,58,0.00,,---,0.00,VWS V14.01,2013-05-16 12:51:00,
2013-05-16 08:57:00,72.8,56.2,29.87,WNW,283,0.0,0.0,56,0.00,,---,0.00,VWS V14.01,2013-05-16 12:57:00,
2013-05-16 09:03:00,73.3,56.2,29.87,NNW,339,0.0,1.0,55,0.00,,---,0.00,VWS V14.01,2013-05-16 13:03:00,
2013-05-16 09:08:00,73.7,55.5,29.88,WNW,302,0.0,1.0,53,0.00,,---,0.00,VWS V14.01,2013-05-16 13:08:00,
2013-05-16 09:15:00,74.2,55.5,29.88,WNW,302,0.0,0.0,52,0.00,,---,0.00,VWS V14.01,2013-05-16 13:15:00,
2013-05-16 09:21:00,74.7,54.8,29.88,West,266,0.0,1.0,50,0.00,,---,0.00,VWS V14.01,2013-05-16 13:21:00,
2013-05-16 09:27:00,75.1,54.7,29.88,North,352,0.0,5.0,49,0.00,,---,0.00,VWS V14.01,2013-05-16 13:27:00,
2013-05-16 09:33:00,75.4,54.9,29.88,WNW,288,0.0,5.0,49,0.00,,---,0.00,VWS V14.01,2013-05-16 13:33:00,
2013-05-16 09:38:00,75.8,54.7,29.88,NW,315,2.0,7.0,48,0.00,,---,0.00,VWS V14.01,2013-05-16 13:38:00,
2013-05-16 09:43:00,76.1,55.6,29.88,NNW,331,4.0,4.0,49,0.00,,---,0.00,VWS V14.01,2013-05-16 13:43:00,
2013-05-16 09:49:00,76.7,54.4,29.88,SW,226,0.0,6.0,46,0.00,,---,0.00,VWS V14.01,2013-05-16 13:49:00,
2013-05-16 09:55:00,76.8,53.9,29.87,NNW,347,0.0,9.0,45,0.00,,---,0.00,VWS V14.01,2013-05-16 13:55:00,
2013-05-16 10:01:00,77.4,55.6,29.87,WSW,250,0.0,9.0,47,0.00,,---,0.00,VWS V14.01,2013-05-16 14:01:00,
2013-05-16 10:07:00,77.4,53.8,29.87,West,260,0.0,9.0,44,0.00,,---,0.00,VWS V14.01,2013-05-16 14:07:00,
2013-05-16 10:13:00,77.6,55.2,29.87,WSW,257,0.0,1.0,46,0.00,,---,0.00,VWS V14.01,2013-05-16 14:13:00,
2013-05-16 10:19:00,77.9,54.9,29.87,West,274,0.0,1.0,45,0.00,,---,0.00,VWS V14.01,2013-05-16 14:19:00,
2013-05-16 10:25:00,78.1,56.8,29.87,WNW,301,0.0,0.0,48,0.00,,---,0.00,VWS V14.01,2013-05-16 14:25:00,
2013-05-16 10:31:00,78.1,55.7,29.87,NW,307,0.0,5.0,46,0.00,,---,0.00,VWS V14.01,2013-05-16 14:31:00,
2013-05-16 10:37:00,78.1,56.8,29.87,WNW,293,0.0,5.0,48,0.00,,---,0.00,VWS V14.01,2013-05-16 14:37:00,
2013-05-16 10:43:00,78.3,57.0,29.87,WSW,258,0.0,0.0,48,0.00,,---,0.00,VWS V14.01,2013-05-16 14:43:00,
2013-05-16 10:49:00,78.5,57.8,29.87,West,273,0.0,0.0,49,0.00,,---,0.00,VWS V14.01,2013-05-16 14:49:00,
2013-05-16 10:55:00,78.5,57.8,29.87,SSW,192,0.0,1.0,49,0.00,,---,0.00,VWS V14.01,2013-05-16 14:55:00,
2013-05-16 11:01:00,78.6,57.9,29.87,SSE,152,0.0,1.0,49,0.00,,---,0.00,VWS V14.01,2013-05-16 15:01:00,
2013-05-16 11:07:00,78.6,57.3,29.88,South,169,0.0,6.0,48,0.00,,---,0.00,VWS V14.01,2013-05-16 15:07:00,
2013-05-16 11:13:00,78.5,57.2,29.88,ESE,117,0.0,1.0,48,0.00,,---,0.00,VWS V14.01,2013-05-16 15:13:00,
2013-05-16 11:19:00,78.8,56.9,29.88,WSW,238,4.0,6.0,47,0.00,,---,0.00,VWS V14.01,2013-05-16 15:19:00,
2013-05-16 11:25:00,78.6,56.7,29.88,SW,233,0.0,3.0,47,0.00,,---,0.00,VWS V14.01,2013-05-16 15:25:00,
2013-05-16 11:31:00,78.8,54.4,29.88,WSW,243,0.0,5.0,43,0.00,,---,0.00,VWS V14.01,2013-05-16 15:31:00,
2013-05-16 11:38:00,78.8,55.1,29.88,SW,229,0.0,5.0,44,0.00,,---,0.00,VWS V14.01,2013-05-16 15:38:00,
2013-05-16 11:44:00,78.8,55.7,29.88,WSW,253,0.0,2.0,45,0.00,,---,0.00,VWS V14.01,2013-05-16 15:44:00,
2013-05-16 11:50:00,78.6,55.5,29.88,SW,235,0.0,5.0,45,0.00,,---,0.00,VWS V14.01,2013-05-16 15:50:00,
2013-05-16 11:56:00,78.6,57.9,29.88,SSE,162,0.0,3.0,49,0.00,,---,0.00,VWS V14.01,2013-05-16 15:56:00,
2013-05-16 12:02:00,78.3,57.0,29.88,SW,227,5.0,5.0,48,0.00,,---,0.00,VWS V14.01,2013-05-16 16:02:00,
2013-05-16 12:08:00,77.9,57.8,29.88,SSW,202,0.0,10.0,50,0.00,,---,0.00,VWS V14.01,2013-05-16 16:08:00,
2013-05-16 12:14:00,77.9,57.2,29.88,SW,219,0.0,4.0,49,0.00,,---,0.00,VWS V14.01,2013-05-16 16:14:00,
2013-05-16 12:20:00,78.1,57.4,29.88,SSE,168,0.0,7.0,49,0.00,,---,0.00,VWS V14.01,2013-05-16 16:20:00,
2013-05-16 12:26:00,78.3,56.4,29.88,South,185,0.0,5.0,47,0.00,,---,0.00,VWS V14.01,2013-05-16 16:26:00,
2013-05-16 12:32:00,77.9,58.3,29.88,NNW,341,0.0,5.0,51,0.00,,---,0.00,VWS V14.01,2013-05-16 16:32:00,
2013-05-16 12:38:00,77.7,58.2,29.88,SW,222,0.0,5.0,51,0.00,,---,0.00,VWS V14.01,2013-05-16 16:38:00,
2013-05-16 12:44:00,77.6,58.1,29.88,SW,225,0.0,5.0,51,0.00,,---,0.00,VWS V14.01,2013-05-16 16:44:00,
2013-05-16 12:50:00,77.6,57.5,29.88,WSW,239,0.0,5.0,50,0.00,,---,0.00,VWS V14.01,2013-05-16 16:50:00,
2013-05-16 12:56:00,77.7,58.2,29.88,SW,214,0.0,5.0,51,0.00,,---,0.00,VWS V14.01,2013-05-16 16:56:00,
2013-05-16 13:02:00,78.1,57.4,29.88,SSW,209,0.0,6.0,49,0.00,,---,0.00,VWS V14.01,2013-05-16 17:02:00,
2013-05-16 13:08:00,78.6,59.0,29.88,South,184,0.0,6.0,51,0.00,,---,0.00,VWS V14.01,2013-05-16 17:08:00,
2013-05-16 13:14:00,79.0,58.8,29.88,SSW,205,0.0,1.0,50,0.00,,---,0.00,VWS V14.01,2013-05-16 17:14:00,
2013-05-16 13:20:00,79.4,58.6,29.88,SE,142,0.0,5.0,49,0.00,,---,0.00,VWS V14.01,2013-05-16 17:20:00,
2013-05-16 13:26:00,79.4,58.0,29.88,NW,326,0.0,0.0,48,0.00,,---,0.00,VWS V14.01,2013-05-16 17:26:00,
2013-05-16 13:32:00,79.8,56.0,29.88,West,274,5.0,6.0,44,0.00,,---,0.00,VWS V14.01,2013-05-16 17:32:00,
2013-05-16 13:38:00,80.3,57.7,29.88,NNW,337,0.0,6.0,46,0.00,,---,0.00,VWS V14.01,2013-05-16 17:38:00,
2013-05-16 13:44:00,81.1,58.4,29.88,SE,145,1.0,3.0,46,0.00,,---,0.00,VWS V14.01,2013-05-16 17:44:00,
2013-05-16 13:50:00,81.2,55.3,29.88,SW,221,1.0,5.0,41,0.00,,---,0.00,VWS V14.01,2013-05-16 17:50:00,
2013-05-16 13:56:00,81.2,56.6,29.88,NNW,335,0.0,1.0,43,0.00,,---,0.00,VWS V14.01,2013-05-16 17:56:00,
2013-05-16 14:02:00,82.0,56.0,29.88,NNW,347,0.0,6.0,41,0.00,,---,0.00,VWS V14.01,2013-05-16 18:02:00,
2013-05-16 14:08:00,82.4,57.7,29.86,WSW,256,0.0,6.0,43,0.00,,---,0.00,VWS V14.01,2013-05-16 18:08:00,
2013-05-16 14:14:00,83.2,58.4,29.86,WSW,256,0.0,1.0,43,0.00,,---,0.00,VWS V14.01,2013-05-16 18:14:00,
2013-05-16 14:20:00,83.0,56.9,29.86,NNW,335,0.0,5.0,41,0.00,,---,0.00,VWS V14.01,2013-05-16 18:20:00,
2013-05-16 14:26:00,83.2,59.0,29.86,West,274,0.0,2.0,44,0.00,,---,0.00,VWS V14.01,2013-05-16 18:26:00,
2013-05-16 14:32:00,83.4,57.3,29.86,WSW,254,0.0,5.0,41,0.00,,---,0.00,VWS V14.01,2013-05-16 18:32:00,
2013-05-16 14:38:00,83.2,57.8,29.86,East,101,0.0,5.0,42,0.00,,---,0.00,VWS V14.01,2013-05-16 18:38:00,
2013-05-16 14:44:00,82.8,58.0,29.86,SSE,166,0.0,4.0,43,0.00,,---,0.00,VWS V14.01,2013-05-16 18:44:00,
2013-05-16 14:50:00,82.8,56.0,29.86,West,264,0.0,5.0,40,0.00,,---,0.00,VWS V14.01,2013-05-16 18:50:00,
2013-05-16 14:56:00,83.4,54.4,29.85,NW,326,2.0,7.0,37,0.00,,---,0.00,VWS V14.01,2013-05-16 18:56:00,
2013-05-16 15:02:00,83.6,53.8,29.85,NNW,341,5.0,7.0,36,0.00,,---,0.00,VWS V14.01,2013-05-16 19:02:00,
2013-05-16 15:08:00,83.4,52.1,29.85,NNW,338,0.0,7.0,34,0.00,,---,0.00,VWS V14.01,2013-05-16 19:08:00,
2013-05-16 15:14:00,83.2,55.0,29.85,NNW,333,5.0,9.0,38,0.00,,---,0.00,VWS V14.01,2013-05-16 19:14:00,
2013-05-16 15:20:00,83.2,52.7,29.85,NW,323,4.0,9.0,35,0.00,,---,0.00,VWS V14.01,2013-05-16 19:20:00,
2013-05-16 15:26:00,83.2,54.2,29.85,South,185,0.0,1.0,37,0.00,,---,0.00,VWS V14.01,2013-05-16 19:26:00,
2013-05-16 15:32:00,83.2,54.2,29.85,NNW,340,0.0,4.0,37,0.00,,---,0.00,VWS V14.01,2013-05-16 19:32:00,
2013-05-16 15:38:00,83.2,56.4,29.84,NNW,340,0.0,4.0,40,0.00,,---,0.00,VWS V14.01,2013-05-16 19:38:00,
2013-05-16 15:44:00,83.0,55.5,29.84,West,276,0.0,1.0,39,0.00,,---,0.00,VWS V14.01,2013-05-16 19:44:00,
2013-05-16 15:50:00,82.8,55.3,29.84,NNW,333,0.0,1.0,39,0.00,,---,0.00,VWS V14.01,2013-05-16 19:50:00,
2013-05-16 15:56:00,83.2,57.8,29.84,SW,231,0.0,5.0,42,0.00,,---,0.00,VWS V14.01,2013-05-16 19:56:00,
2013-05-16 16:02:00,83.6,58.1,29.84,WNW,285,0.0,5.0,42,0.00,,---,0.00,VWS V14.01,2013-05-16 20:02:00,
2013-05-16 16:08:00,83.6,56.8,29.83,WSW,256,0.0,5.0,40,0.00,,---,0.00,VWS V14.01,2013-05-16 20:08:00,
2013-05-16 16:14:00,83.6,57.4,29.83,WSW,256,0.0,1.0,41,0.00,,---,0.00,VWS V14.01,2013-05-16 20:14:00,
2013-05-16 16:20:00,83.2,58.4,29.83,ESE,108,0.0,1.0,43,0.00,,---,0.00,VWS V14.01,2013-05-16 20:20:00,
2013-05-16 16:26:00,82.6,58.5,29.83,SE,131,0.0,0.0,44,0.00,,---,0.00,VWS V14.01,2013-05-16 20:26:00,
2013-05-16 16:33:00,82.6,59.1,29.83,SE,132,0.0,1.0,45,0.00,,---,0.00,VWS V14.01,2013-05-16 20:33:00,
2013-05-16 16:38:00,82.2,58.8,29.83,WSW,241,0.0,1.0,45,0.00,,---,0.00,VWS V14.01,2013-05-16 20:38:00,
2013-05-16 16:45:00,81.8,59.6,29.83,WSW,238,0.0,0.0,47,0.00,,---,0.00,VWS V14.01,2013-05-16 20:45:00,
2013-05-16 16:51:00,81.2,59.1,29.83,SSW,208,0.0,3.0,47,0.00,,---,0.00,VWS V14.01,2013-05-16 20:51:00,
2013-05-16 16:57:00,80.7,59.2,29.84,SSW,193,0.0,1.0,48,0.00,,---,0.00,VWS V14.01,2013-05-16 20:57:00,
2013-05-16 17:03:00,80.3,58.8,29.84,SE,139,0.0,8.0,48,0.00,,---,0.00,VWS V14.01,2013-05-16 21:03:00,
2013-05-16 17:08:00,80.3,59.4,29.84,SW,230,6.0,8.0,49,0.00,,---,0.00,VWS V14.01,2013-05-16 21:08:00,
2013-05-16 17:15:00,79.8,58.4,29.84,WSW,251,3.0,6.0,48,0.00,,---,0.00,VWS V14.01,2013-05-16 21:15:00,
2013-05-16 17:21:00,79.8,59.5,29.84,SSW,193,0.0,6.0,50,0.00,,---,0.00,VWS V14.01,2013-05-16 21:21:00,
2013-05-16 17:27:00,79.6,58.2,29.84,SSW,207,0.0,1.0,48,0.00,,---,0.00,VWS V14.01,2013-05-16 21:27:00,
2013-05-16 17:33:00,79.6,58.8,29.84,SSW,193,0.0,1.0,49,0.00,,---,0.00,VWS V14.01,2013-05-16 21:33:00,
2013-05-16 17:38:00,79.6,59.3,29.84,WSW,243,0.0,3.0,50,0.00,,---,0.00,VWS V14.01,2013-05-16 21:38:00,
2013-05-16 17:45:00,79.8,60.1,29.84,South,170,0.0,1.0,51,0.00,,---,0.00,VWS V14.01,2013-05-16 21:45:00,
2013-05-16 17:51:00,79.9,59.0,29.84,SSE,163,0.0,1.0,49,0.00,,---,0.00,VWS V14.01,2013-05-16 21:51:00,
2013-05-16 17:57:00,80.1,58.7,29.84,SE,129,0.0,1.0,48,0.00,,---,0.00,VWS V14.01,2013-05-16 21:57:00,
2013-05-16 18:03:00,79.9,58.5,29.84,SSW,206,0.0,2.0,48,0.00,,---,0.00,VWS V14.01,2013-05-16 22:03:00,
2013-05-16 18:08:00,79.8,58.4,29.85,South,183,0.0,2.0,48,0.00,,---,0.00,VWS V14.01,2013-05-16 22:08:00,
2013-05-16 18:15:00,79.8,60.1,29.85,SE,134,0.0,3.0,51,0.00,,---,0.00,VWS V14.01,2013-05-16 22:15:00,
2013-05-16 18:21:00,79.9,59.6,29.85,South,187,0.0,3.0,50,0.00,,---,0.00,VWS V14.01,2013-05-16 22:21:00,
2013-05-16 18:27:00,79.6,59.3,29.84,SE,140,0.0,1.0,50,0.00,,---,0.00,VWS V14.01,2013-05-16 22:27:00,
2013-05-16 18:33:00,79.6,59.3,29.84,SSE,165,0.0,1.0,50,0.00,,---,0.00,VWS V14.01,2013-05-16 22:33:00,
2013-05-16 18:39:00,79.4,59.7,29.84,SSW,208,0.0,2.0,51,0.00,,---,0.00,VWS V14.01,2013-05-16 22:39:00,
2013-05-16 18:45:00,79.0,59.3,29.84,SW,233,2.0,5.0,51,0.00,,---,0.00,VWS V14.01,2013-05-16 22:45:00,
2013-05-16 18:51:00,78.8,59.7,29.84,WSW,238,0.0,5.0,52,0.00,,---,0.00,VWS V14.01,2013-05-16 22:51:00,
2013-05-16 18:57:00,78.6,59.5,29.85,WSW,238,0.0,0.0,52,0.00,,---,0.00,VWS V14.01,2013-05-16 22:57:00,
2013-05-16 19:03:00,78.5,60.0,29.85,WSW,238,0.0,0.0,53,0.00,,---,0.00,VWS V14.01,2013-05-16 23:03:00,
2013-05-16 19:09:00,78.3,59.8,29.85,SW,233,0.0,0.0,53,0.00,,---,0.00,VWS V14.01,2013-05-16 23:09:00,
2013-05-16 19:15:00,77.9,59.9,29.85,SSW,200,0.0,2.0,54,0.00,,---,0.00,VWS V14.01,2013-05-16 23:15:00,
2013-05-16 19:21:00,77.6,59.7,29.85,WSW,257,0.0,4.0,54,0.00,,---,0.00,VWS V14.01,2013-05-16 23:21:00,
2013-05-16 19:27:00,77.4,60.0,29.85,WSW,251,0.0,1.0,55,0.00,,---,0.00,VWS V14.01,2013-05-16 23:27:00,
2013-05-16 19:33:00,77.2,59.8,29.85,WSW,251,0.0,1.0,55,0.00,,---,0.00,VWS V14.01,2013-05-16 23:33:00,
2013-05-16 19:39:00,76.8,59.9,29.85,WSW,248,0.0,0.0,56,0.00,,---,0.00,VWS V14.01,2013-05-16 23:39:00,
2013-05-16 19:45:00,76.7,59.8,29.85,WSW,255,0.0,1.0,56,0.00,,---,0.00,VWS V14.01,2013-05-16 23:45:00,
2013-05-16 19:51:00,76.5,59.7,29.85,WSW,255,0.0,1.0,56,0.00,,---,0.00,VWS V14.01,2013-05-16 23:51:00,
2013-05-16 19:57:00,76.5,60.2,29.85,WSW,255,0.0,0.0,57,0.00,,---,0.00,VWS V14.01,2013-05-16 23:57:00,
2013-05-16 20:03:00,76.3,60.0,29.85,West,261,0.0,0.0,57,0.00,,---,0.00,VWS V14.01,2013-05-17 00:03:00,
2013-05-16 20:09:00,76.1,59.8,29.86,West,261,0.0,0.0,57,0.00,,---,0.00,VWS V14.01,2013-05-17 00:09:00,
2013-05-16 20:15:00,76.0,59.7,29.86,West,261,0.0,0.0,57,0.00,,---,0.00,VWS V14.01,2013-05-17 00:15:00,
2013-05-16 20:21:00,75.8,59.5,29.86,West,261,0.0,0.0,57,0.00,,---,0.00,VWS V14.01,2013-05-17 00:21:00,
2013-05-16 20:27:00,75.6,59.3,29.86,West,261,0.0,0.0,57,0.00,,---,0.00,VWS V14.01,2013-05-17 00:27:00,
2013-05-16 20:34:00,75.4,59.1,29.86,West,261,0.0,0.0,57,0.00,,---,0.00,VWS V14.01,2013-05-17 00:34:00,
2013-05-16 20:40:00,75.3,59.0,29.87,West,261,0.0,0.0,57,0.00,,---,0.00,VWS V14.01,2013-05-17 00:40:00,
2013-05-16 20:46:00,75.1,58.8,29.87,West,261,0.0,0.0,57,0.00,,---,0.00,VWS V14.01,2013-05-17 00:46:00,
2013-05-16 20:52:00,74.9,58.2,29.87,West,261,0.0,0.0,56,0.00,,---,0.00,VWS V14.01,2013-05-17 00:52:00,
2013-05-16 20:58:00,74.7,58.0,29.87,West,261,0.0,0.0,56,0.00,,---,0.00,VWS V14.01,2013-05-17 00:58:00,
2013-05-16 21:04:00,74.6,58.4,29.87,West,261,0.0,0.0,57,0.00,,---,0.00,VWS V14.01,2013-05-17 01:04:00,
2013-05-16 21:10:00,74.4,57.7,29.88,West,261,0.0,0.0,56,0.00,,---,0.00,VWS V14.01,2013-05-17 01:10:00,
2013-05-16 21:16:00,74.2,58.0,29.88,West,261,0.0,0.0,57,0.00,,---,0.00,VWS V14.01,2013-05-17 01:16:00,
2013-05-16 21:22:00,74.0,57.8,29.88,West,261,0.0,0.0,57,0.00,,---,0.00,VWS V14.01,2013-05-17 01:22:00,
2013-05-16 21:28:00,73.7,58.0,29.88,West,261,0.0,0.0,58,0.00,,---,0.00,VWS V14.01,2013-05-17 01:28:00,
2013-05-16 21:34:00,73.5,57.8,29.88,West,261,0.0,0.0,58,0.00,,---,0.00,VWS V14.01,2013-05-17 01:34:00,
2013-05-16 21:40:00,73.3,57.7,29.89,West,260,0.0,1.0,58,0.00,,---,0.00,VWS V14.01,2013-05-17 01:40:00,
2013-05-16 21:46:00,73.2,57.5,29.89,West,260,0.0,1.0,58,0.00,,---,0.00,VWS V14.01,2013-05-17 01:46:00,
2013-05-16 21:52:00,73.2,57.5,29.89,West,260,0.0,1.0,58,0.00,,---,0.00,VWS V14.01,2013-05-17 01:52:00,
2013-05-16 21:58:00,73.0,59.2,29.89,West,260,0.0,0.0,62,0.00,,---,0.00,VWS V14.01,2013-05-17 01:58:00,
2013-05-16 22:04:00,72.8,58.6,29.89,West,260,0.0,0.0,61,0.00,,---,0.00,VWS V14.01,2013-05-17 02:04:00,
2013-05-16 22:10:00,72.7,58.5,29.90,West,260,0.0,0.0,61,0.00,,---,0.00,VWS V14.01,2013-05-17 02:10:00,
2013-05-16 22:16:00,72.3,58.6,29.90,West,260,0.0,0.0,62,0.00,,---,0.00,VWS V14.01,2013-05-17 02:16:00,
2013-05-16 22:22:00,72.1,59.3,29.90,West,260,0.0,0.0,64,0.00,,---,0.00,VWS V14.01,2013-05-17 02:22:00,
2013-05-16 22:28:00,71.8,59.4,29.90,West,260,0.0,0.0,65,0.00,,---,0.00,VWS V14.01,2013-05-17 02:28:00,
2013-05-16 22:34:00,71.5,59.6,29.90,West,260,0.0,0.0,66,0.00,,---,0.00,VWS V14.01,2013-05-17 02:34:00,
2013-05-16 22:40:00,71.1,58.8,29.91,West,260,0.0,0.0,65,0.00,,---,0.00,VWS V14.01,2013-05-17 02:40:00,
2013-05-16 22:46:00,70.9,59.0,29.91,West,260,0.0,0.0,66,0.00,,---,0.00,VWS V14.01,2013-05-17 02:46:00,
2013-05-16 22:52:00,70.8,58.9,29.91,West,260,0.0,0.0,66,0.00,,---,0.00,VWS V14.01,2013-05-17 02:52:00,
2013-05-16 22:58:00,70.6,58.7,29.91,West,260,0.0,0.0,66,0.00,,---,0.00,VWS V14.01,2013-05-17 02:58:00,
2013-05-16 23:04:00,70.6,58.7,29.91,West,260,0.0,0.0,66,0.00,,---,0.00,VWS V14.01,2013-05-17 03:04:00,
2013-05-16 23:10:00,70.4,58.1,29.91,West,260,0.0,0.0,65,0.00,,---,0.00,VWS V14.01,2013-05-17 03:10:00,
2013-05-16 23:16:00,70.3,58.0,29.91,West,260,0.0,0.0,65,0.00,,---,0.00,VWS V14.01,2013-05-17 03:16:00,
2013-05-16 23:22:00,69.9,58.5,29.91,West,260,0.0,0.0,67,0.00,,---,0.00,VWS V14.01,2013-05-17 03:22:00,
2013-05-16 23:28:00,69.6,58.6,29.91,West,260,0.0,0.0,68,0.00,,---,0.00,VWS V14.01,2013-05-17 03:28:00,
2013-05-16 23:34:00,69.4,57.1,29.91,NNW,336,0.0,2.0,65,0.00,,---,0.00,VWS V14.01,2013-05-17 03:34:00,
2013-05-16 23:40:00,69.4,57.6,29.91,NNW,336,0.0,0.0,66,0.00,,---,0.00,VWS V14.01,2013-05-17 03:40:00,
2013-05-16 23:46:00,69.3,57.5,29.91,NNW,336,0.0,0.0,66,0.00,,---,0.00,VWS V14.01,2013-05-17 03:46:00,
2013-05-16 23:52:00,69.1,57.3,29.91,NNW,336,0.0,0.0,66,0.00,,---,0.00,VWS V14.01,2013-05-17 03:52:00,
2013-05-16 23:58:00,68.9,56.7,29.91,NNW,336,0.0,0.0,65,0.00,,---,0.00,VWS V14.01,2013-05-17 03:58:00,